sensor_id;sensor_type;location;lat;lon;timestamp;P1;durP1;ratioP1;P2;durP2;ratioP2
75626;SDS011;67372;49.404;11.034;2023-02-28T00:02:02;4.68;;;2.28;;
75626;SDS011;67372;49.404;11.034;2023-02-28T00:04:29;5.43;;;2.35;;
75626;SDS011;67372;49.404;11.034;2023-02-28T00:06:55;2.92;;;1.42;;
75626;SDS011;67372;49.404;11.034;2023-02-28T00:09:21;4.00;;;2.20;;
75626;SDS011;67372;49.404;11.034;2023-02-28T00:11:48;3.22;;;1.77;;
75626;SDS011;67372;49.404;11.034;2023-02-28T00:14:14;4.32;;;2.05;;
75626;SDS011;67372;49.404;11.034;2023-02-28T00:16:41;3.35;;;2.20;;
75626;SDS011;67372;49.404;11.034;2023-02-28T00:19:07;5.90;;;2.10;;
75626;SDS011;67372;49.404;11.034;2023-02-28T00:21:33;6.53;;;2.20;;
75626;SDS011;67372;49.404;11.034;2023-02-28T00:24:00;2.97;;;1.55;;
75626;SDS011;67372;49.404;11.034;2023-02-28T00:26:26;4.40;;;2.65;;
75626;SDS011;67372;49.404;11.034;2023-02-28T00:28:52;4.68;;;1.75;;
75626;SDS011;67372;49.404;11.034;2023-02-28T00:31:19;5.63;;;2.45;;
75626;SDS011;67372;49.404;11.034;2023-02-28T00:33:45;5.05;;;1.45;;
75626;SDS011;67372;49.404;11.034;2023-02-28T00:36:11;3.60;;;1.90;;
75626;SDS011;67372;49.404;11.034;2023-02-28T00:38:38;4.03;;;2.08;;
75626;SDS011;67372;49.404;11.034;2023-02-28T00:41:06;4.70;;;2.35;;
75626;SDS011;67372;49.404;11.034;2023-02-28T00:43:34;5.20;;;2.20;;
75626;SDS011;67372;49.404;11.034;2023-02-28T00:46:02;3.33;;;2.17;;
75626;SDS011;67372;49.404;11.034;2023-02-28T00:48:29;3.83;;;2.30;;
75626;SDS011;67372;49.404;11.034;2023-02-28T00:50:55;4.93;;;2.05;;
75626;SDS011;67372;49.404;11.034;2023-02-28T00:53:22;4.47;;;2.60;;
75626;SDS011;67372;49.404;11.034;2023-02-28T00:55:49;3.90;;;2.10;;
75626;SDS011;67372;49.404;11.034;2023-02-28T00:58:16;6.47;;;2.47;;
75626;SDS011;67372;49.404;11.034;2023-02-28T01:00:42;5.00;;;2.35;;
75626;SDS011;67372;49.404;11.034;2023-02-28T01:03:09;4.82;;;2.40;;
75626;SDS011;67372;49.404;11.034;2023-02-28T01:05:35;5.80;;;2.90;;
75626;SDS011;67372;49.404;11.034;2023-02-28T01:08:02;5.82;;;2.00;;
75626;SDS011;67372;49.404;11.034;2023-02-28T01:10:28;6.82;;;2.55;;
75626;SDS011;67372;49.404;11.034;2023-02-28T01:12:54;5.03;;;2.38;;
75626;SDS011;67372;49.404;11.034;2023-02-28T01:15:21;5.18;;;2.60;;
75626;SDS011;67372;49.404;11.034;2023-02-28T01:17:47;5.28;;;2.38;;
75626;SDS011;67372;49.404;11.034;2023-02-28T01:20:13;4.18;;;1.98;;
75626;SDS011;67372;49.404;11.034;2023-02-28T01:22:40;6.50;;;2.58;;
75626;SDS011;67372;49.404;11.034;2023-02-28T01:25:06;3.95;;;2.30;;
75626;SDS011;67372;49.404;11.034;2023-02-28T01:27:33;3.58;;;2.17;;
75626;SDS011;67372;49.404;11.034;2023-02-28T01:30:00;7.72;;;2.75;;
75626;SDS011;67372;49.404;11.034;2023-02-28T01:32:26;10.23;;;2.70;;
75626;SDS011;67372;49.404;11.034;2023-02-28T01:34:52;4.28;;;2.10;;
75626;SDS011;67372;49.404;11.034;2023-02-28T01:37:19;3.20;;;1.92;;
75626;SDS011;67372;49.404;11.034;2023-02-28T01:39:45;3.20;;;2.13;;
75626;SDS011;67372;49.404;11.034;2023-02-28T01:42:11;5.05;;;2.83;;
75626;SDS011;67372;49.404;11.034;2023-02-28T01:47:27;7.25;;;2.28;;
75626;SDS011;67372;49.404;11.034;2023-02-28T01:49:58;4.72;;;2.45;;
75626;SDS011;67372;49.404;11.034;2023-02-28T01:52:26;4.88;;;2.30;;
75626;SDS011;67372;49.404;11.034;2023-02-28T01:54:54;4.70;;;2.22;;
75626;SDS011;67372;49.404;11.034;2023-02-28T01:57:24;5.68;;;2.05;;
75626;SDS011;67372;49.404;11.034;2023-02-28T01:59:58;7.47;;;2.90;;
75626;SDS011;67372;49.404;11.034;2023-02-28T02:02:28;4.30;;;2.33;;
75626;SDS011;67372;49.404;11.034;2023-02-28T02:04:57;6.10;;;2.10;;
75626;SDS011;67372;49.404;11.034;2023-02-28T02:07:26;6.13;;;2.25;;
75626;SDS011;67372;49.404;11.034;2023-02-28T02:15:19;4.30;;;2.30;;
75626;SDS011;67372;49.404;11.034;2023-02-28T02:17:55;3.63;;;1.90;;
75626;SDS011;67372;49.404;11.034;2023-02-28T02:26:16;3.97;;;2.17;;
75626;SDS011;67372;49.404;11.034;2023-02-28T02:32:04;4.70;;;2.35;;
75626;SDS011;67372;49.404;11.034;2023-02-28T02:34:43;4.85;;;1.90;;
75626;SDS011;67372;49.404;11.034;2023-02-28T02:40:22;3.63;;;1.92;;
75626;SDS011;67372;49.404;11.034;2023-02-28T02:45:50;4.47;;;1.67;;
75626;SDS011;67372;49.404;11.034;2023-02-28T02:48:21;6.25;;;1.77;;
75626;SDS011;67372;49.404;11.034;2023-02-28T02:50:57;4.63;;;1.83;;
75626;SDS011;67372;49.404;11.034;2023-02-28T02:53:28;5.28;;;2.45;;
75626;SDS011;67372;49.404;11.034;2023-02-28T02:55:59;5.07;;;2.50;;
75626;SDS011;67372;49.404;11.034;2023-02-28T02:58:29;4.65;;;1.90;;
75626;SDS011;67372;49.404;11.034;2023-02-28T03:01:00;4.55;;;2.20;;
75626;SDS011;67372;49.404;11.034;2023-02-28T03:03:30;5.65;;;2.15;;
75626;SDS011;67372;49.404;11.034;2023-02-28T03:05:59;1.42;;;1.17;;
75626;SDS011;67372;49.404;11.034;2023-02-28T03:08:28;5.82;;;2.22;;
75626;SDS011;67372;49.404;11.034;2023-02-28T03:11:00;4.70;;;2.20;;
75626;SDS011;67372;49.404;11.034;2023-02-28T03:13:38;6.63;;;2.60;;
75626;SDS011;67372;49.404;11.034;2023-02-28T03:16:21;3.03;;;1.88;;
75626;SDS011;67372;49.404;11.034;2023-02-28T03:21:57;5.68;;;2.47;;
75626;SDS011;67372;49.404;11.034;2023-02-28T03:27:06;4.18;;;1.83;;
75626;SDS011;67372;49.404;11.034;2023-02-28T03:29:37;6.00;;;2.30;;
75626;SDS011;67372;49.404;11.034;2023-02-28T03:34:37;6.78;;;3.22;;
75626;SDS011;67372;49.404;11.034;2023-02-28T03:37:12;4.78;;;2.05;;
75626;SDS011;67372;49.404;11.034;2023-02-28T03:39:46;6.00;;;2.33;;
75626;SDS011;67372;49.404;11.034;2023-02-28T03:42:20;6.05;;;2.20;;
75626;SDS011;67372;49.404;11.034;2023-02-28T03:47:58;5.47;;;2.88;;
75626;SDS011;67372;49.404;11.034;2023-02-28T03:50:36;7.97;;;2.80;;
75626;SDS011;67372;49.404;11.034;2023-02-28T03:55:41;5.60;;;2.50;;
75626;SDS011;67372;49.404;11.034;2023-02-28T04:00:46;5.55;;;2.17;;
75626;SDS011;67372;49.404;11.034;2023-02-28T04:03:19;5.35;;;1.98;;
75626;SDS011;67372;49.404;11.034;2023-02-28T04:05:52;5.40;;;2.50;;
75626;SDS011;67372;49.404;11.034;2023-02-28T04:08:21;7.72;;;3.17;;
75626;SDS011;67372;49.404;11.034;2023-02-28T04:10:51;7.20;;;3.00;;
75626;SDS011;67372;49.404;11.034;2023-02-28T04:13:22;5.28;;;2.40;;
75626;SDS011;67372;49.404;11.034;2023-02-28T04:15:48;8.70;;;3.20;;
75626;SDS011;67372;49.404;11.034;2023-02-28T04:18:14;5.38;;;3.03;;
75626;SDS011;67372;49.404;11.034;2023-02-28T04:20:41;8.52;;;2.80;;
75626;SDS011;67372;49.404;11.034;2023-02-28T04:23:07;8.15;;;3.40;;
75626;SDS011;67372;49.404;11.034;2023-02-28T04:25:34;6.22;;;2.83;;
75626;SDS011;67372;49.404;11.034;2023-02-28T04:28:00;6.88;;;3.22;;
75626;SDS011;67372;49.404;11.034;2023-02-28T04:30:26;5.18;;;2.28;;
75626;SDS011;67372;49.404;11.034;2023-02-28T04:32:53;6.30;;;2.75;;
75626;SDS011;67372;49.404;11.034;2023-02-28T04:35:19;7.07;;;3.05;;
75626;SDS011;67372;49.404;11.034;2023-02-28T04:37:45;5.03;;;2.88;;
75626;SDS011;67372;49.404;11.034;2023-02-28T04:40:12;8.80;;;3.13;;
75626;SDS011;67372;49.404;11.034;2023-02-28T04:42:38;6.72;;;2.55;;
75626;SDS011;67372;49.404;11.034;2023-02-28T04:45:05;6.82;;;2.88;;
75626;SDS011;67372;49.404;11.034;2023-02-28T04:47:31;6.20;;;2.88;;
75626;SDS011;67372;49.404;11.034;2023-02-28T04:49:58;9.98;;;3.20;;
75626;SDS011;67372;49.404;11.034;2023-02-28T04:52:24;7.15;;;3.70;;
75626;SDS011;67372;49.404;11.034;2023-02-28T04:54:51;8.80;;;3.00;;
75626;SDS011;67372;49.404;11.034;2023-02-28T04:57:17;7.85;;;2.80;;
75626;SDS011;67372;49.404;11.034;2023-02-28T04:59:43;5.50;;;2.67;;
75626;SDS011;67372;49.404;11.034;2023-02-28T05:02:10;6.00;;;3.22;;
75626;SDS011;67372;49.404;11.034;2023-02-28T05:04:36;7.50;;;3.80;;
75626;SDS011;67372;49.404;11.034;2023-02-28T05:07:02;10.68;;;3.83;;
75626;SDS011;67372;49.404;11.034;2023-02-28T05:09:29;8.70;;;3.53;;
75626;SDS011;67372;49.404;11.034;2023-02-28T05:11:55;6.07;;;3.03;;
75626;SDS011;67372;49.404;11.034;2023-02-28T05:14:22;9.15;;;3.10;;
75626;SDS011;67372;49.404;11.034;2023-02-28T05:16:48;10.30;;;3.28;;
75626;SDS011;67372;49.404;11.034;2023-02-28T05:19:14;9.13;;;3.40;;
75626;SDS011;67372;49.404;11.034;2023-02-28T05:21:41;7.80;;;3.05;;
75626;SDS011;67372;49.404;11.034;2023-02-28T05:24:16;11.07;;;4.03;;
75626;SDS011;67372;49.404;11.034;2023-02-28T05:26:42;9.20;;;3.60;;
75626;SDS011;67372;49.404;11.034;2023-02-28T05:29:09;8.85;;;3.78;;
75626;SDS011;67372;49.404;11.034;2023-02-28T05:31:36;8.60;;;3.53;;
75626;SDS011;67372;49.404;11.034;2023-02-28T05:34:02;10.10;;;4.18;;
75626;SDS011;67372;49.404;11.034;2023-02-28T05:36:29;8.85;;;3.20;;
75626;SDS011;67372;49.404;11.034;2023-02-28T05:38:55;9.02;;;3.55;;
75626;SDS011;67372;49.404;11.034;2023-02-28T05:41:21;7.13;;;3.45;;
75626;SDS011;67372;49.404;11.034;2023-02-28T05:43:48;6.13;;;2.70;;
75626;SDS011;67372;49.404;11.034;2023-02-28T05:46:15;8.77;;;3.70;;
75626;SDS011;67372;49.404;11.034;2023-02-28T05:48:42;7.63;;;3.67;;
75626;SDS011;67372;49.404;11.034;2023-02-28T05:51:11;8.63;;;3.80;;
75626;SDS011;67372;49.404;11.034;2023-02-28T05:53:38;8.38;;;3.25;;
75626;SDS011;67372;49.404;11.034;2023-02-28T05:56:04;8.93;;;3.67;;
75626;SDS011;67372;49.404;11.034;2023-02-28T05:58:31;8.88;;;4.07;;
75626;SDS011;67372;49.404;11.034;2023-02-28T06:00:58;7.00;;;3.88;;
75626;SDS011;67372;49.404;11.034;2023-02-28T06:03:25;8.65;;;3.70;;
75626;SDS011;67372;49.404;11.034;2023-02-28T06:05:52;8.20;;;3.30;;
75626;SDS011;67372;49.404;11.034;2023-02-28T06:08:19;9.88;;;3.20;;
75626;SDS011;67372;49.404;11.034;2023-02-28T06:10:45;8.00;;;3.35;;
75626;SDS011;67372;49.404;11.034;2023-02-28T06:13:12;7.63;;;2.63;;
75626;SDS011;67372;49.404;11.034;2023-02-28T06:15:38;6.00;;;3.10;;
75626;SDS011;67372;49.404;11.034;2023-02-28T06:18:05;8.07;;;3.20;;
75626;SDS011;67372;49.404;11.034;2023-02-28T06:20:31;7.93;;;3.42;;
75626;SDS011;67372;49.404;11.034;2023-02-28T06:22:58;11.05;;;4.05;;
75626;SDS011;67372;49.404;11.034;2023-02-28T06:25:25;12.50;;;3.55;;
75626;SDS011;67372;49.404;11.034;2023-02-28T06:27:52;8.50;;;3.40;;
75626;SDS011;67372;49.404;11.034;2023-02-28T06:30:19;9.73;;;3.63;;
75626;SDS011;67372;49.404;11.034;2023-02-28T06:32:46;6.60;;;2.83;;
75626;SDS011;67372;49.404;11.034;2023-02-28T06:35:12;7.90;;;3.15;;
75626;SDS011;67372;49.404;11.034;2023-02-28T06:37:38;8.15;;;3.80;;
75626;SDS011;67372;49.404;11.034;2023-02-28T06:40:07;9.07;;;3.35;;
75626;SDS011;67372;49.404;11.034;2023-02-28T06:42:34;11.02;;;4.07;;
75626;SDS011;67372;49.404;11.034;2023-02-28T06:45:00;6.75;;;3.17;;
75626;SDS011;67372;49.404;11.034;2023-02-28T06:47:27;8.27;;;3.40;;
75626;SDS011;67372;49.404;11.034;2023-02-28T06:49:53;9.48;;;3.70;;
75626;SDS011;67372;49.404;11.034;2023-02-28T06:52:19;7.28;;;3.65;;
75626;SDS011;67372;49.404;11.034;2023-02-28T06:54:46;9.05;;;3.65;;
75626;SDS011;67372;49.404;11.034;2023-02-28T06:57:12;9.23;;;4.03;;
75626;SDS011;67372;49.404;11.034;2023-02-28T06:59:38;7.03;;;3.65;;
75626;SDS011;67372;49.404;11.034;2023-02-28T07:02:05;8.90;;;3.58;;
75626;SDS011;67372;49.404;11.034;2023-02-28T07:04:31;7.43;;;4.15;;
75626;SDS011;67372;49.404;11.034;2023-02-28T07:06:57;11.80;;;4.72;;
75626;SDS011;67372;49.404;11.034;2023-02-28T07:09:24;9.90;;;4.60;;
75626;SDS011;67372;49.404;11.034;2023-02-28T07:11:50;8.15;;;3.75;;
75626;SDS011;67372;49.404;11.034;2023-02-28T07:14:17;11.23;;;4.25;;
75626;SDS011;67372;49.404;11.034;2023-02-28T07:16:43;12.00;;;4.35;;
75626;SDS011;67372;49.404;11.034;2023-02-28T07:19:09;10.68;;;4.38;;
75626;SDS011;67372;49.404;11.034;2023-02-28T07:21:36;10.98;;;3.33;;
75626;SDS011;67372;49.404;11.034;2023-02-28T07:24:02;10.45;;;4.38;;
75626;SDS011;67372;49.404;11.034;2023-02-28T07:26:28;11.30;;;4.10;;
75626;SDS011;67372;49.404;11.034;2023-02-28T07:28:55;9.88;;;3.92;;
75626;SDS011;67372;49.404;11.034;2023-02-28T07:31:21;9.82;;;4.30;;
75626;SDS011;67372;49.404;11.034;2023-02-28T07:33:47;9.63;;;3.97;;
75626;SDS011;67372;49.404;11.034;2023-02-28T07:36:15;7.72;;;3.58;;
75626;SDS011;67372;49.404;11.034;2023-02-28T07:38:43;14.55;;;4.93;;
75626;SDS011;67372;49.404;11.034;2023-02-28T07:41:14;8.57;;;3.65;;
75626;SDS011;67372;49.404;11.034;2023-02-28T07:43:42;10.27;;;4.88;;
75626;SDS011;67372;49.404;11.034;2023-02-28T07:46:10;11.00;;;4.28;;
75626;SDS011;67372;49.404;11.034;2023-02-28T07:48:38;9.60;;;3.53;;
75626;SDS011;67372;49.404;11.034;2023-02-28T07:51:04;13.55;;;4.68;;
75626;SDS011;67372;49.404;11.034;2023-02-28T07:53:31;10.55;;;4.82;;
75626;SDS011;67372;49.404;11.034;2023-02-28T07:55:58;10.38;;;4.43;;
75626;SDS011;67372;49.404;11.034;2023-02-28T07:58:26;10.85;;;4.32;;
75626;SDS011;67372;49.404;11.034;2023-02-28T08:00:54;10.73;;;4.03;;
75626;SDS011;67372;49.404;11.034;2023-02-28T08:03:21;11.63;;;5.43;;
75626;SDS011;67372;49.404;11.034;2023-02-28T08:05:49;10.05;;;4.20;;
75626;SDS011;67372;49.404;11.034;2023-02-28T08:08:16;7.32;;;4.25;;
75626;SDS011;67372;49.404;11.034;2023-02-28T08:10:43;8.55;;;4.20;;
75626;SDS011;67372;49.404;11.034;2023-02-28T08:13:09;10.15;;;4.45;;
75626;SDS011;67372;49.404;11.034;2023-02-28T08:15:36;7.18;;;3.28;;
75626;SDS011;67372;49.404;11.034;2023-02-28T08:18:02;14.27;;;4.80;;
75626;SDS011;67372;49.404;11.034;2023-02-28T08:20:29;8.10;;;3.97;;
75626;SDS011;67372;49.404;11.034;2023-02-28T08:22:56;9.55;;;4.03;;
75626;SDS011;67372;49.404;11.034;2023-02-28T08:25:22;8.38;;;3.90;;
75626;SDS011;67372;49.404;11.034;2023-02-28T08:27:50;29.25;;;4.78;;
75626;SDS011;67372;49.404;11.034;2023-02-28T08:30:17;9.75;;;4.70;;
75626;SDS011;67372;49.404;11.034;2023-02-28T08:32:43;8.95;;;3.28;;
75626;SDS011;67372;49.404;11.034;2023-02-28T08:35:10;8.15;;;4.05;;
75626;SDS011;67372;49.404;11.034;2023-02-28T08:37:36;9.65;;;3.95;;
75626;SDS011;67372;49.404;11.034;2023-02-28T08:40:03;10.07;;;4.63;;
75626;SDS011;67372;49.404;11.034;2023-02-28T08:42:29;9.60;;;4.07;;
75626;SDS011;67372;49.404;11.034;2023-02-28T08:44:56;10.55;;;3.90;;
75626;SDS011;67372;49.404;11.034;2023-02-28T08:47:22;12.75;;;4.85;;
75626;SDS011;67372;49.404;11.034;2023-02-28T08:49:48;8.07;;;4.43;;
75626;SDS011;67372;49.404;11.034;2023-02-28T08:52:15;10.05;;;4.20;;
75626;SDS011;67372;49.404;11.034;2023-02-28T08:54:41;11.68;;;4.80;;
75626;SDS011;67372;49.404;11.034;2023-02-28T08:57:07;8.40;;;3.30;;
75626;SDS011;67372;49.404;11.034;2023-02-28T08:59:34;9.20;;;4.13;;
75626;SDS011;67372;49.404;11.034;2023-02-28T09:02:01;8.82;;;4.28;;
75626;SDS011;67372;49.404;11.034;2023-02-28T09:04:27;12.55;;;4.57;;
75626;SDS011;67372;49.404;11.034;2023-02-28T09:06:53;9.70;;;4.50;;
75626;SDS011;67372;49.404;11.034;2023-02-28T09:09:19;10.57;;;4.10;;
75626;SDS011;67372;49.404;11.034;2023-02-28T09:11:46;10.00;;;4.28;;
75626;SDS011;67372;49.404;11.034;2023-02-28T09:14:12;12.18;;;5.15;;
75626;SDS011;67372;49.404;11.034;2023-02-28T09:16:38;8.25;;;4.13;;
75626;SDS011;67372;49.404;11.034;2023-02-28T09:19:05;12.75;;;4.57;;
75626;SDS011;67372;49.404;11.034;2023-02-28T09:21:31;10.70;;;4.63;;
75626;SDS011;67372;49.404;11.034;2023-02-28T09:23:58;10.13;;;4.43;;
75626;SDS011;67372;49.404;11.034;2023-02-28T09:26:25;12.10;;;4.82;;
75626;SDS011;67372;49.404;11.034;2023-02-28T09:29:04;9.20;;;4.30;;
75626;SDS011;67372;49.404;11.034;2023-02-28T09:31:30;10.40;;;4.30;;
75626;SDS011;67372;49.404;11.034;2023-02-28T09:33:57;9.30;;;4.57;;
75626;SDS011;67372;49.404;11.034;2023-02-28T09:36:24;8.38;;;4.10;;
75626;SDS011;67372;49.404;11.034;2023-02-28T09:39:08;12.30;;;4.38;;
75626;SDS011;67372;49.404;11.034;2023-02-28T09:41:37;11.30;;;4.03;;
75626;SDS011;67372;49.404;11.034;2023-02-28T09:44:06;10.85;;;4.40;;
75626;SDS011;67372;49.404;11.034;2023-02-28T09:46:40;7.93;;;4.15;;
75626;SDS011;67372;49.404;11.034;2023-02-28T09:49:11;10.90;;;4.95;;
75626;SDS011;67372;49.404;11.034;2023-02-28T09:54:23;9.23;;;4.03;;
75626;SDS011;67372;49.404;11.034;2023-02-28T09:56:55;11.70;;;4.88;;
75626;SDS011;67372;49.404;11.034;2023-02-28T10:04:58;10.82;;;4.20;;
75626;SDS011;67372;49.404;11.034;2023-02-28T10:10:23;8.35;;;3.67;;
75626;SDS011;67372;49.404;11.034;2023-02-28T10:12:54;11.18;;;4.40;;
75626;SDS011;67372;49.404;11.034;2023-02-28T10:15:24;10.70;;;5.05;;
75626;SDS011;67372;49.404;11.034;2023-02-28T10:17:54;8.55;;;4.25;;
75626;SDS011;67372;49.404;11.034;2023-02-28T10:20:35;8.98;;;4.45;;
75626;SDS011;67372;49.404;11.034;2023-02-28T10:23:09;8.73;;;4.20;;
75626;SDS011;67372;49.404;11.034;2023-02-28T10:25:44;10.00;;;4.40;;
75626;SDS011;67372;49.404;11.034;2023-02-28T10:28:16;9.57;;;4.30;;
75626;SDS011;67372;49.404;11.034;2023-02-28T10:30:47;8.13;;;4.20;;
75626;SDS011;67372;49.404;11.034;2023-02-28T10:33:19;9.65;;;4.18;;
75626;SDS011;67372;49.404;11.034;2023-02-28T10:35:49;9.35;;;4.40;;
75626;SDS011;67372;49.404;11.034;2023-02-28T10:38:18;10.57;;;4.25;;
75626;SDS011;67372;49.404;11.034;2023-02-28T10:40:47;8.60;;;4.45;;
75626;SDS011;67372;49.404;11.034;2023-02-28T10:43:18;12.82;;;4.78;;
75626;SDS011;67372;49.404;11.034;2023-02-28T10:46:19;9.63;;;4.25;;
75626;SDS011;67372;49.404;11.034;2023-02-28T10:48:50;9.27;;;4.13;;
75626;SDS011;67372;49.404;11.034;2023-02-28T10:51:26;10.15;;;4.28;;
75626;SDS011;67372;49.404;11.034;2023-02-28T10:54:01;11.25;;;4.72;;
75626;SDS011;67372;49.404;11.034;2023-02-28T10:56:28;9.50;;;4.15;;
75626;SDS011;67372;49.404;11.034;2023-02-28T11:03:59;10.77;;;5.55;;
75626;SDS011;67372;49.404;11.034;2023-02-28T11:06:26;10.60;;;5.13;;
75626;SDS011;67372;49.404;11.034;2023-02-28T11:08:58;11.18;;;4.60;;
75626;SDS011;67372;49.404;11.034;2023-02-28T11:11:27;7.90;;;4.68;;
75626;SDS011;67372;49.404;11.034;2023-02-28T11:13:57;9.02;;;4.28;;
75626;SDS011;67372;49.404;11.034;2023-02-28T11:16:33;8.40;;;4.30;;
75626;SDS011;67372;49.404;11.034;2023-02-28T11:19:06;7.15;;;4.13;;
75626;SDS011;67372;49.404;11.034;2023-02-28T11:21:48;8.40;;;4.30;;
75626;SDS011;67372;49.404;11.034;2023-02-28T11:26:51;9.20;;;4.55;;
75626;SDS011;67372;49.404;11.034;2023-02-28T11:29:21;9.70;;;4.95;;
75626;SDS011;67372;49.404;11.034;2023-02-28T11:32:06;10.40;;;4.40;;
75626;SDS011;67372;49.404;11.034;2023-02-28T11:34:39;9.50;;;4.07;;
75626;SDS011;67372;49.404;11.034;2023-02-28T11:37:11;9.68;;;4.72;;
75626;SDS011;67372;49.404;11.034;2023-02-28T11:39:44;7.13;;;3.35;;
75626;SDS011;67372;49.404;11.034;2023-02-28T11:48:09;7.53;;;3.97;;
75626;SDS011;67372;49.404;11.034;2023-02-28T11:50:52;10.48;;;4.95;;
75626;SDS011;67372;49.404;11.034;2023-02-28T11:53:30;8.68;;;4.15;;
75626;SDS011;67372;49.404;11.034;2023-02-28T11:56:25;11.95;;;5.13;;
75626;SDS011;67372;49.404;11.034;2023-02-28T12:04:51;7.53;;;4.05;;
75626;SDS011;67372;49.404;11.034;2023-02-28T12:10:21;8.80;;;4.30;;
75626;SDS011;67372;49.404;11.034;2023-02-28T12:15:29;9.82;;;4.75;;
75626;SDS011;67372;49.404;11.034;2023-02-28T12:18:10;9.73;;;5.15;;
75626;SDS011;67372;49.404;11.034;2023-02-28T12:21:01;9.02;;;4.85;;
75626;SDS011;67372;49.404;11.034;2023-02-28T12:23:42;7.50;;;3.95;;
75626;SDS011;67372;49.404;11.034;2023-02-28T12:29:39;9.35;;;4.63;;
75626;SDS011;67372;49.404;11.034;2023-02-28T12:31:52;10.38;;;4.65;;
75626;SDS011;67372;49.404;11.034;2023-02-28T12:34:22;8.82;;;4.80;;
75626;SDS011;67372;49.404;11.034;2023-02-28T12:36:54;10.18;;;4.78;;
75626;SDS011;67372;49.404;11.034;2023-02-28T12:39:26;10.27;;;5.18;;
75626;SDS011;67372;49.404;11.034;2023-02-28T12:41:59;10.60;;;4.20;;
75626;SDS011;67372;49.404;11.034;2023-02-28T12:44:40;10.35;;;4.75;;
75626;SDS011;67372;49.404;11.034;2023-02-28T12:47:13;9.98;;;4.53;;
75626;SDS011;67372;49.404;11.034;2023-02-28T12:49:56;7.90;;;4.03;;
75626;SDS011;67372;49.404;11.034;2023-02-28T12:52:31;11.07;;;5.15;;
75626;SDS011;67372;49.404;11.034;2023-02-28T12:57:58;8.70;;;4.00;;
75626;SDS011;67372;49.404;11.034;2023-02-28T13:00:38;11.10;;;4.78;;
75626;SDS011;67372;49.404;11.034;2023-02-28T13:08:38;11.43;;;4.90;;
75626;SDS011;67372;49.404;11.034;2023-02-28T13:14:20;10.55;;;5.00;;
75626;SDS011;67372;49.404;11.034;2023-02-28T13:16:48;9.55;;;4.55;;
75626;SDS011;67372;49.404;11.034;2023-02-28T13:19:26;10.18;;;4.63;;
75626;SDS011;67372;49.404;11.034;2023-02-28T13:21:55;10.73;;;4.63;;
75626;SDS011;67372;49.404;11.034;2023-02-28T13:29:36;10.27;;;4.30;;
75626;SDS011;67372;49.404;11.034;2023-02-28T13:34:34;6.22;;;3.95;;
75626;SDS011;67372;49.404;11.034;2023-02-28T13:39:45;8.43;;;4.03;;
75626;SDS011;67372;49.404;11.034;2023-02-28T13:42:23;8.88;;;4.40;;
75626;SDS011;67372;49.404;11.034;2023-02-28T13:55:43;8.95;;;4.30;;
75626;SDS011;67372;49.404;11.034;2023-02-28T14:06:40;8.43;;;4.43;;
75626;SDS011;67372;49.404;11.034;2023-02-28T14:09:21;10.77;;;4.85;;
75626;SDS011;67372;49.404;11.034;2023-02-28T14:17:53;9.38;;;4.60;;
75626;SDS011;67372;49.404;11.034;2023-02-28T14:20:22;11.10;;;5.03;;
75626;SDS011;67372;49.404;11.034;2023-02-28T14:23:04;9.32;;;4.57;;
75626;SDS011;67372;49.404;11.034;2023-02-28T14:25:44;8.88;;;4.47;;
75626;SDS011;67372;49.404;11.034;2023-02-28T14:31:23;12.35;;;5.18;;
75626;SDS011;67372;49.404;11.034;2023-02-28T14:36:57;12.48;;;5.28;;
75626;SDS011;67372;49.404;11.034;2023-02-28T14:39:26;9.95;;;4.28;;
75626;SDS011;67372;49.404;11.034;2023-02-28T14:41:54;10.57;;;4.68;;
75626;SDS011;67372;49.404;11.034;2023-02-28T14:44:27;11.00;;;4.78;;
75626;SDS011;67372;49.404;11.034;2023-02-28T14:46:54;12.55;;;5.63;;
75626;SDS011;67372;49.404;11.034;2023-02-28T14:49:41;10.50;;;5.18;;
75626;SDS011;67372;49.404;11.034;2023-02-28T14:52:15;10.40;;;5.07;;
75626;SDS011;67372;49.404;11.034;2023-02-28T14:54:46;11.60;;;5.07;;
75626;SDS011;67372;49.404;11.034;2023-02-28T14:57:25;10.52;;;5.65;;
75626;SDS011;67372;49.404;11.034;2023-02-28T14:59:58;12.18;;;5.60;;
75626;SDS011;67372;49.404;11.034;2023-02-28T15:02:36;11.07;;;4.72;;
75626;SDS011;67372;49.404;11.034;2023-02-28T15:07:36;10.68;;;5.22;;
75626;SDS011;67372;49.404;11.034;2023-02-28T15:12:39;8.55;;;4.47;;
75626;SDS011;67372;49.404;11.034;2023-02-28T15:15:06;10.18;;;5.05;;
75626;SDS011;67372;49.404;11.034;2023-02-28T15:20:10;10.57;;;4.68;;
75626;SDS011;67372;49.404;11.034;2023-02-28T15:22:39;10.15;;;4.65;;
75626;SDS011;67372;49.404;11.034;2023-02-28T15:25:07;10.35;;;5.03;;
75626;SDS011;67372;49.404;11.034;2023-02-28T15:27:44;12.45;;;5.38;;
75626;SDS011;67372;49.404;11.034;2023-02-28T15:30:34;9.15;;;4.13;;
75626;SDS011;67372;49.404;11.034;2023-02-28T15:35:45;11.35;;;5.00;;
75626;SDS011;67372;49.404;11.034;2023-02-28T15:38:16;15.45;;;5.15;;
75626;SDS011;67372;49.404;11.034;2023-02-28T15:40:54;10.15;;;5.00;;
75626;SDS011;67372;49.404;11.034;2023-02-28T15:45:52;10.05;;;5.38;;
75626;SDS011;67372;49.404;11.034;2023-02-28T15:48:24;12.25;;;5.90;;
75626;SDS011;67372;49.404;11.034;2023-02-28T15:57:01;12.65;;;5.22;;
75626;SDS011;67372;49.404;11.034;2023-02-28T15:59:22;13.43;;;6.47;;
75626;SDS011;67372;49.404;11.034;2023-02-28T16:02:01;14.05;;;6.20;;
75626;SDS011;67372;49.404;11.034;2023-02-28T16:04:34;11.85;;;6.10;;
75626;SDS011;67372;49.404;11.034;2023-02-28T16:07:01;11.07;;;5.40;;
75626;SDS011;67372;49.404;11.034;2023-02-28T16:09:31;11.35;;;4.82;;
75626;SDS011;67372;49.404;11.034;2023-02-28T16:12:00;12.88;;;5.22;;
75626;SDS011;67372;49.404;11.034;2023-02-28T16:14:29;10.88;;;5.05;;
75626;SDS011;67372;49.404;11.034;2023-02-28T16:19:28;11.55;;;5.15;;
75626;SDS011;67372;49.404;11.034;2023-02-28T16:21:54;14.07;;;6.20;;
75626;SDS011;67372;49.404;11.034;2023-02-28T16:24:21;12.65;;;6.22;;
75626;SDS011;67372;49.404;11.034;2023-02-28T16:26:47;11.48;;;5.25;;
75626;SDS011;67372;49.404;11.034;2023-02-28T16:29:23;8.90;;;5.00;;
75626;SDS011;67372;49.404;11.034;2023-02-28T16:31:55;9.60;;;5.03;;
75626;SDS011;67372;49.404;11.034;2023-02-28T16:34:22;10.00;;;5.03;;
75626;SDS011;67372;49.404;11.034;2023-02-28T16:36:49;12.63;;;5.40;;
75626;SDS011;67372;49.404;11.034;2023-02-28T16:39:16;11.93;;;5.00;;
75626;SDS011;67372;49.404;11.034;2023-02-28T16:41:43;10.23;;;4.90;;
75626;SDS011;67372;49.404;11.034;2023-02-28T16:44:20;9.52;;;5.10;;
75626;SDS011;67372;49.404;11.034;2023-02-28T16:49:28;12.15;;;5.60;;
75626;SDS011;67372;49.404;11.034;2023-02-28T16:54:30;11.93;;;5.28;;
75626;SDS011;67372;49.404;11.034;2023-02-28T16:56:56;15.27;;;5.53;;
75626;SDS011;67372;49.404;11.034;2023-02-28T16:59:23;12.70;;;5.82;;
75626;SDS011;67372;49.404;11.034;2023-02-28T17:17:57;11.20;;;5.80;;
75626;SDS011;67372;49.404;11.034;2023-02-28T17:20:23;18.90;;;8.75;;
75626;SDS011;67372;49.404;11.034;2023-02-28T17:22:50;13.90;;;6.13;;
75626;SDS011;67372;49.404;11.034;2023-02-28T17:25:17;11.73;;;5.45;;
75626;SDS011;67372;49.404;11.034;2023-02-28T17:27:43;14.68;;;6.93;;
75626;SDS011;67372;49.404;11.034;2023-02-28T17:32:40;14.77;;;6.03;;
75626;SDS011;67372;49.404;11.034;2023-02-28T17:35:07;15.05;;;6.22;;
75626;SDS011;67372;49.404;11.034;2023-02-28T17:37:34;17.98;;;6.82;;
75626;SDS011;67372;49.404;11.034;2023-02-28T17:40:00;14.88;;;6.38;;
75626;SDS011;67372;49.404;11.034;2023-02-28T17:42:27;17.50;;;6.88;;